Time;durP1;ratioP1;P1;durP2;ratioP2;P2;SDS_P1;SDS_P2;PMS_P1;PMS_P2;Temp;Humidity;BMP_temperature;BMP_pressure;BME280_temperature;BME280_humidity;BME280_pressure;Samples;Min_cycle;Max_cycle;Signal;HPM_P1;HPM_P2
2022/06/15 00:01:55;;;;;;;4.60;2.05;;;;;;;19.74;43.00;100018.59;4445428;32;34531;-64
2022/06/15 00:04:23;;;;;;;4.25;1.87;;;;;;;19.78;42.91;100023.53;4449205;32;34644;-63
2022/06/15 00:06:51;;;;;;;5.50;2.22;;;;;;;19.69;42.90;100016.37;4442910;32;34247;-67
2022/06/15 00:09:19;;;;;;;6.28;2.30;;;;;;;19.56;43.33;100026.84;4449424;32;35303;-64
2022/06/15 00:11:46;;;;;;;5.62;2.60;;;;;;;19.61;43.34;100027.19;4449627;32;34153;-64
2022/06/15 00:14:18;;;;;;;5.55;2.12;;;;;;;19.73;43.07;100025.91;4444449;32;33614;-64
2022/06/15 00:16:45;;;;;;;3.28;1.83;;;;;;;19.64;43.44;100026.87;4441362;32;32429;-61
2022/06/15 00:19:14;;;;;;;7.05;2.33;;;;;;;19.69;43.26;100021.81;4449647;32;33790;-62
2022/06/15 00:21:41;;;;;;;5.43;2.20;;;;;;;19.72;43.39;100026.91;4451391;32;35096;-63
2022/06/15 00:24:10;;;;;;;4.45;1.60;;;;;;;19.72;43.27;100026.06;4444216;32;33696;-63
2022/06/15 00:26:38;;;;;;;4.78;2.05;;;;;;;19.71;43.27;100022.50;4450323;32;33957;-65
2022/06/15 00:29:06;;;;;;;5.72;2.05;;;;;;;19.64;43.84;100021.47;4438990;32;34697;-64
2022/06/15 00:31:34;;;;;;;4.32;1.90;;;;;;;19.47;43.79;100027.84;4439795;32;34140;-66
2022/06/15 00:34:03;;;;;;;4.75;2.30;;;;;;;19.31;43.82;100020.50;4440740;32;34200;-64
2022/06/15 00:36:31;;;;;;;4.35;2.00;;;;;;;19.21;44.96;100031.47;4440381;32;33842;-65
2022/06/15 00:38:59;;;;;;;5.25;2.17;;;;;;;18.99;44.93;100021.22;4445337;32;33974;-65
2022/06/15 00:41:33;;;;;;;5.68;1.77;;;;;;;19.14;43.92;100021.47;4447890;32;33084;-62
2022/06/15 00:44:19;;;;;;;3.40;2.00;;;;;;;19.20;43.67;100023.53;4447810;32;33887;-62
2022/06/15 00:46:49;;;;;;;4.12;1.77;;;;;;;19.18;43.81;100018.25;4446266;32;34004;-63
2022/06/15 00:49:22;;;;;;;4.10;1.98;;;;;;;19.05;43.97;100017.84;4446220;32;35173;-62
2022/06/15 00:51:53;;;;;;;3.60;1.77;;;;;;;19.07;43.70;100013.97;4446677;32;35311;-64
2022/06/15 00:54:22;;;;;;;4.47;1.73;;;;;;;19.18;43.41;100015.53;4446895;32;32561;-65
2022/06/15 00:56:51;;;;;;;3.58;1.85;;;;;;;19.30;43.19;100008.78;4440020;32;33757;-63
2022/06/15 00:59:31;;;;;;;3.58;2.10;;;;;;;19.15;43.65;100015.00;4449467;32;34384;-66
2022/06/15 01:01:59;;;;;;;4.07;1.65;;;;;;;19.28;43.42;100013.53;4446401;32;33922;-63
2022/06/15 01:04:34;;;;;;;4.22;1.60;;;;;;;19.35;43.41;100019.16;4447887;32;35005;-66
2022/06/15 01:07:05;;;;;;;3.83;1.87;;;;;;;19.35;43.63;100023.72;4440053;32;34052;-64
2022/06/15 01:09:37;;;;;;;4.87;1.80;;;;;;;19.43;43.95;100031.91;4448982;32;32023;-61
2022/06/15 01:12:26;;;;;;;4.45;1.92;;;;;;;19.54;43.16;100024.28;4436437;32;34629;-64
2022/06/15 01:15:06;;;;;;;4.35;1.87;;;;;;;19.48;42.74;100030.37;4440253;32;31945;-66
2022/06/15 01:18:11;;;;;;;2.92;1.67;;;;;;;19.39;42.75;100027.81;4447881;32;34832;-64
2022/06/15 01:20:58;;;;;;;4.07;1.95;;;;;;;19.37;42.55;100036.13;4438932;32;32466;-62
2022/06/15 01:24:02;;;;;;;4.55;1.77;;;;;;;19.02;44.49;100038.00;4438480;32;34123;-63
2022/06/15 01:26:41;;;;;;;3.75;2.10;;;;;;;19.34;43.94;100044.59;4425096;32;33248;-64
2022/06/15 01:29:28;;;;;;;3.85;2.08;;;;;;;19.53;43.15;100033.47;4434925;32;33492;-66
2022/06/15 01:32:13;;;;;;;5.78;2.80;;;;;;;19.58;42.84;100043.81;4445815;32;32917;-63
2022/06/15 01:34:52;;;;;;;4.95;2.37;;;;;;;19.64;42.57;100039.63;4456291;32;32930;-67
2022/06/15 01:37:40;;;;;;;4.10;2.00;;;;;;;19.49;42.22;100045.66;4445337;32;33651;-63
2022/06/15 01:40:18;;;;;;;5.05;2.15;;;;;;;19.34;42.73;100052.72;4445453;32;34787;-65
2022/06/15 01:42:48;;;;;;;3.20;1.80;;;;;;;19.20;43.13;100040.66;4439509;32;33952;-66
2022/06/15 01:45:19;;;;;;;3.90;1.77;;;;;;;19.04;43.28;100038.72;4437447;32;32617;-63
2022/06/15 01:47:49;;;;;;;4.18;2.00;;;;;;;18.99;43.22;100045.62;4443070;32;32782;-64
2022/06/15 01:50:21;;;;;;;4.70;2.00;;;;;;;19.00;43.07;100040.03;4433345;32;32890;-65
2022/06/15 01:52:57;;;;;;;8.85;1.98;;;;;;;19.03;42.87;100049.72;4437283;32;37680;-64
2022/06/15 01:55:26;;;;;;;;;;;;;;;18.81;43.75;100049.28;4446859;32;34121;-63
2022/06/15 01:57:56;;;;;;;5.00;1.92;;;;;;;18.77;43.97;100041.59;4441231;32;33248;-64
2022/06/15 02:00:24;;;;;;;4.45;2.00;;;;;;;18.90;43.34;100046.59;4444456;32;32927;-64
2022/06/15 02:03:17;;;;;;;4.65;1.83;;;;;;;18.98;43.33;100043.94;4439093;32;33388;-63
2022/06/15 02:06:10;;;;;;;3.03;1.67;;;;;;;19.01;43.29;100049.03;4444942;32;34438;-66
2022/06/15 02:08:53;;;;;;;7.50;2.03;;;;;;;19.07;43.07;100045.69;4441260;32;35543;-63
2022/06/15 02:11:28;;;;;;;5.20;1.92;;;;;;;19.03;43.21;100049.72;4438105;32;34792;-65
2022/06/15 02:14:00;;;;;;;3.37;1.75;;;;;;;18.94;43.58;100040.69;4437109;32;34064;-62
2022/06/15 02:16:38;;;;;;;5.18;2.53;;;;;;;19.06;43.43;100042.09;4446911;32;33883;-63
2022/06/15 02:19:09;;;;;;;4.75;1.87;;;;;;;19.13;43.31;100034.16;4441357;32;34549;-63
2022/06/15 02:21:39;;;;;;;7.50;1.90;;;;;;;18.79;43.77;100045.84;4442422;32;34415;-60
2022/06/15 02:24:09;;;;;;;3.00;1.70;;;;;;;18.98;43.00;100038.50;4436713;32;34021;-63
2022/06/15 02:26:38;;;;;;;3.70;1.67;;;;;;;18.91;43.12;100048.28;4436925;32;34776;-63
2022/06/15 02:29:09;;;;;;;2.90;1.40;;;;;;;18.53;43.46;100048.53;4444657;32;33451;-64
2022/06/15 02:31:41;;;;;;;4.72;1.70;;;;;;;18.33;43.67;100044.31;4437574;32;34997;-61
2022/06/15 02:34:09;;;;;;;2.33;1.40;;;;;;;18.11;43.90;100049.22;4440765;32;35167;-63
2022/06/15 02:36:37;;;;;;;2.53;1.60;;;;;;;18.21;43.48;100045.59;4448817;32;34044;-64
2022/06/15 02:39:07;;;;;;;2.70;1.75;;;;;;;18.05;43.54;100041.72;4442655;32;34641;-61
2022/06/15 02:41:36;;;;;;;4.25;1.87;;;;;;;18.16;43.46;100041.47;4447511;32;33495;-61
2022/06/15 02:44:06;;;;;;;5.37;1.87;;;;;;;18.05;44.01;100039.00;4448833;32;35013;-63
2022/06/15 02:46:39;;;;;;;5.30;2.10;;;;;;;17.87;45.00;100036.28;4443101;32;33937;-64
2022/06/15 02:49:06;;;;;;;4.40;2.00;;;;;;;17.91;44.80;100029.59;4448740;32;34439;-64
2022/06/15 02:51:43;;;;;;;6.28;2.20;;;;;;;17.92;45.13;100041.25;4440725;32;33881;-64
2022/06/15 02:54:20;;;;;;;3.45;2.40;;;;;;;17.73;45.51;100044.09;4439427;32;32867;-62
2022/06/15 02:56:48;;;;;;;3.35;1.85;;;;;;;17.63;45.84;100047.69;4451258;32;34903;-64
2022/06/15 02:59:17;;;;;;;4.18;1.75;;;;;;;17.63;44.53;100047.69;4432242;32;32368;-66
2022/06/15 03:01:45;;;;;;;4.37;1.87;;;;;;;17.85;44.24;100051.88;4445668;32;34840;-65
2022/06/15 03:04:13;;;;;;;3.35;1.95;;;;;;;17.79;44.40;100051.63;4447221;32;32455;-63
2022/06/15 03:06:40;;;;;;;2.70;1.52;;;;;;;17.98;43.89;100050.59;4447731;32;32917;-61
2022/06/15 03:09:08;;;;;;;3.45;1.80;;;;;;;18.11;44.02;100045.66;4446382;32;32321;-65
2022/06/15 03:11:39;;;;;;;3.12;1.80;;;;;;;18.24;43.83;100061.53;4445675;32;35087;-66
2022/06/15 03:14:07;;;;;;;4.90;2.10;;;;;;;18.43;43.51;100055.06;4450867;32;35016;-64
2022/06/15 03:16:36;;;;;;;3.67;2.00;;;;;;;18.52;43.54;100052.28;4450410;32;33931;-62
2022/06/15 03:19:04;;;;;;;3.58;1.80;;;;;;;18.54;43.79;100057.53;4460839;32;33255;-63
2022/06/15 03:21:31;;;;;;;3.72;1.95;;;;;;;18.72;43.46;100058.34;4461440;32;33973;-65
2022/06/15 03:24:00;;;;;;;3.53;1.77;;;;;;;18.58;44.22;100062.44;4442081;32;33689;-64
2022/06/15 03:26:29;;;;;;;3.40;1.87;;;;;;;18.69;43.77;100055.09;4451199;32;32660;-66
2022/06/15 03:28:57;;;;;;;3.83;2.00;;;;;;;18.63;44.83;100062.84;4452930;32;33753;-74
2022/06/15 03:31:27;;;;;;;5.75;2.67;;;;;;;18.67;44.36;100063.38;4451206;32;33232;-64
2022/06/15 03:33:55;;;;;;;4.82;2.20;;;;;;;18.83;43.61;100059.94;4450357;32;34945;-64
2022/06/15 03:36:23;;;;;;;5.65;2.20;;;;;;;19.01;43.55;100060.72;4452245;32;34248;-65
2022/06/15 03:38:52;;;;;;;4.05;1.85;;;;;;;19.03;43.39;100064.13;4451879;32;32554;-63
2022/06/15 03:41:20;;;;;;;4.90;2.05;;;;;;;19.19;42.90;100062.50;4449006;32;35060;-63
2022/06/15 03:43:48;;;;;;;4.60;1.73;;;;;;;19.26;43.00;100058.13;4450370;32;32909;-62
2022/06/15 03:46:16;;;;;;;5.80;2.22;;;;;;;19.22;43.10;100054.88;4452054;32;34759;-63
2022/06/15 03:48:45;;;;;;;5.28;1.92;;;;;;;19.30;42.47;100054.94;4452971;32;34348;-65
2022/06/15 03:51:14;;;;;;;5.07;2.30;;;;;;;19.20;42.98;100059.62;4447751;32;33611;-64
2022/06/15 03:53:42;;;;;;;3.60;1.85;;;;;;;19.24;43.29;100061.00;4450812;32;34093;-64
2022/06/15 03:56:10;;;;;;;5.20;2.10;;;;;;;19.39;42.97;100060.38;4452097;32;35106;-63
2022/06/15 03:58:38;;;;;;;7.40;2.50;;;;;;;19.36;43.26;100057.97;4451369;32;33623;-63
2022/06/15 04:01:06;;;;;;;5.32;2.08;;;;;;;19.41;43.38;100066.50;4452105;32;34850;-64
2022/06/15 04:03:33;;;;;;;3.65;1.95;;;;;;;19.41;43.62;100061.06;4451111;32;34132;-64
2022/06/15 04:06:02;;;;;;;4.07;2.10;;;;;;;19.23;44.12;100064.75;4447043;32;34245;-65
2022/06/15 04:08:39;;;;;;;3.40;1.83;;;;;;;19.43;43.09;100067.19;4450596;32;33354;-63
2022/06/15 04:11:58;;;;;;;4.68;1.80;;;;;;;19.43;43.17;100062.62;4446516;32;33658;-64
2022/06/15 04:14:01;;;;;;;2.72;1.60;;;;;;;19.75;42.53;100059.19;4448004;32;33939;-68
2022/06/15 04:16:29;;;;;;;4.85;2.20;;;;;;;19.91;42.28;100068.38;4450313;32;35639;-66
2022/06/15 04:19:02;;;;;;;3.53;1.98;;;;;;;20.00;42.43;100064.66;4449344;32;33828;-68
2022/06/15 04:21:30;;;;;;;4.95;1.90;;;;;;;20.13;42.38;100056.88;4448354;32;33690;-66
2022/06/15 04:23:58;;;;;;;4.28;1.70;;;;;;;20.16;42.39;100064.69;4449676;32;34074;-68
2022/06/15 04:26:27;;;;;;;3.05;1.65;;;;;;;20.15;41.93;100062.97;4450193;32;35182;-68
2022/06/15 04:28:55;;;;;;;4.32;1.87;;;;;;;20.00;43.32;100070.09;4447795;32;32516;-66
2022/06/15 04:31:22;;;;;;;4.18;1.98;;;;;;;20.28;41.52;100069.75;4449467;32;33958;-64
2022/06/15 04:33:50;;;;;;;4.18;2.17;;;;;;;20.22;41.05;100072.16;4445640;32;32923;-64
2022/06/15 04:36:19;;;;;;;3.90;1.70;;;;;;;20.47;40.64;100069.41;4448897;32;33899;-65
2022/06/15 04:38:48;;;;;;;4.72;1.87;;;;;;;20.63;40.56;100064.00;4449112;32;33603;-66
2022/06/15 04:41:22;;;;;;;3.58;1.75;;;;;;;20.39;40.53;100064.00;4446067;32;34056;-65
2022/06/15 04:43:50;;;;;;;4.22;2.00;;;;;;;20.65;39.74;100064.69;4450685;32;33987;-64
2022/06/15 04:46:18;;;;;;;4.53;1.80;;;;;;;20.66;39.88;100069.09;4449368;32;35226;-64
2022/06/15 04:48:47;;;;;;;3.40;1.90;;;;;;;20.65;39.71;100067.41;4446133;32;33430;-64
2022/06/15 04:51:21;;;;;;;4.53;1.77;;;;;;;20.38;40.61;100071.28;4447097;32;33499;-65
2022/06/15 04:53:52;;;;;;;4.37;1.90;;;;;;;20.52;41.04;100068.97;4449911;32;34285;-64
2022/06/15 04:56:21;;;;;;;3.90;1.73;;;;;;;20.60;40.77;100068.94;4448982;32;35194;-64
2022/06/15 04:58:48;;;;;;;4.28;2.00;;;;;;;20.71;41.06;100065.88;4450634;32;32602;-67
2022/06/15 05:01:16;;;;;;;3.75;1.80;;;;;;;20.76;40.71;100068.91;4449367;32;34770;-66
2022/06/15 05:03:44;;;;;;;3.30;1.73;;;;;;;20.77;41.41;100069.75;4448559;32;32921;-64
2022/06/15 05:06:17;;;;;;;3.80;1.70;;;;;;;20.78;40.98;100077.75;4448082;32;32941;-64
2022/06/15 05:08:46;;;;;;;4.72;2.00;;;;;;;21.02;40.82;100078.72;4445756;32;33669;-64
2022/06/15 05:11:13;;;;;;;4.32;1.80;;;;;;;21.13;40.74;100075.63;4437425;32;33835;-65
2022/06/15 05:13:41;;;;;;;6.12;1.80;;;;;;;21.28;40.79;100068.41;4448931;32;32904;-67
2022/06/15 05:16:09;;;;;;;3.62;1.75;;;;;;;21.43;40.62;100082.19;4449546;32;35051;-64
2022/06/15 05:18:37;;;;;;;3.97;2.10;;;;;;;21.49;40.76;100083.34;4448270;32;33710;-65
2022/06/15 05:21:05;;;;;;;3.47;1.90;;;;;;;21.66;40.49;100084.13;4449639;32;34493;-68
2022/06/15 05:23:33;;;;;;;5.37;2.25;;;;;;;21.72;40.09;100076.06;4450162;32;32721;-64
2022/06/15 05:26:01;;;;;;;5.40;2.10;;;;;;;21.69;40.42;100075.59;4449268;32;33842;-64
2022/06/15 05:28:29;;;;;;;4.78;1.80;;;;;;;21.76;40.51;100071.97;4438700;32;32427;-65
2022/06/15 05:31:09;;;;;;;3.87;1.60;;;;;;;21.97;39.69;100074.06;4448160;32;33693;-64
2022/06/15 05:33:40;;;;;;;3.15;1.50;;;;;;;22.15;39.06;100073.78;4439065;32;33839;-64
2022/06/15 05:36:11;;;;;;;4.95;2.12;;;;;;;22.18;39.71;100073.41;4449756;32;33967;-65
2022/06/15 05:38:39;;;;;;;4.55;2.00;;;;;;;22.27;39.33;100071.47;4449589;32;33582;-65
2022/06/15 05:41:10;;;;;;;4.78;1.87;;;;;;;22.48;39.10;100081.72;4449834;32;34514;-65
2022/06/15 05:43:58;;;;;;;4.95;2.20;;;;;;;22.54;39.52;100075.53;4449577;32;35876;-65
2022/06/15 05:46:30;;;;;;;3.05;1.80;;;;;;;22.59;40.04;100078.53;4450744;32;34803;-65
2022/06/15 05:49:03;;;;;;;6.00;1.87;;;;;;;22.76;40.76;100088.28;4443742;32;33380;-68
2022/06/15 05:51:31;;;;;;;4.28;2.05;;;;;;;23.02;40.08;100087.03;4448091;32;33942;-68
2022/06/15 05:53:59;;;;;;;4.10;1.60;;;;;;;23.05;37.55;100086.66;4450722;32;33774;-65
2022/06/15 05:56:27;;;;;;;6.50;2.22;;;;;;;23.10;38.18;100088.81;4448442;32;34944;-67
2022/06/15 05:58:55;;;;;;;4.10;1.80;;;;;;;22.85;36.55;100091.75;4449965;32;33324;-67
2022/06/15 06:01:24;;;;;;;3.15;1.62;;;;;;;23.01;36.58;100088.03;4445605;32;34308;-67
2022/06/15 06:03:52;;;;;;;4.87;1.98;;;;;;;22.90;36.69;100085.75;4447581;32;36005;-66
2022/06/15 06:06:20;;;;;;;4.07;1.90;;;;;;;23.16;36.40;100088.91;4449169;32;33885;-67
2022/06/15 06:08:48;;;;;;;3.95;2.00;;;;;;;22.77;36.01;100086.41;4445491;32;33176;-67
2022/06/15 06:11:17;;;;;;;8.27;2.20;;;;;;;22.56;36.08;100087.94;4450327;32;34633;-68
2022/06/15 06:13:44;;;;;;;4.37;2.00;;;;;;;22.15;36.34;100090.12;4447702;32;34047;-69
2022/06/15 06:16:20;;;;;;;3.10;1.80;;;;;;;22.12;36.96;100095.94;4448731;32;34598;-67
2022/06/15 06:18:48;;;;;;;4.12;2.08;;;;;;;22.65;36.84;100094.16;4448450;32;33887;-69
2022/06/15 06:21:15;;;;;;;4.50;1.77;;;;;;;23.07;36.41;100095.50;4449182;32;33977;-67
2022/06/15 06:23:43;;;;;;;3.85;1.98;;;;;;;23.10;34.67;100099.72;4449400;32;34957;-68
2022/06/15 06:26:19;;;;;;;6.37;1.85;;;;;;;23.06;35.33;100102.00;4449600;32;34778;-66
2022/06/15 06:28:47;;;;;;;5.87;2.00;;;;;;;22.88;33.46;100101.47;4446468;32;32263;-65
2022/06/15 06:31:16;;;;;;;4.22;1.60;;;;;;;22.65;35.10;100096.91;4447900;32;33848;-67
2022/06/15 06:33:43;;;;;;;3.17;1.60;;;;;;;22.73;34.51;100096.84;4444990;32;34231;-67
2022/06/15 06:36:16;;;;;;;3.95;1.95;;;;;;;22.83;35.15;100096.56;4447713;32;35134;-66
2022/06/15 06:38:44;;;;;;;4.78;1.90;;;;;;;22.35;35.23;100101.44;4446990;32;33462;-68
2022/06/15 06:41:15;;;;;;;6.68;1.98;;;;;;;22.37;34.90;100103.97;4447654;32;33832;-66
2022/06/15 06:43:42;;;;;;;4.80;2.50;;;;;;;22.13;35.53;100099.50;4447832;32;33355;-66
2022/06/15 06:46:10;;;;;;;5.47;2.25;;;;;;;22.45;34.72;100098.44;4447563;32;35403;-67
2022/06/15 06:48:38;;;;;;;5.40;1.70;;;;;;;22.88;34.34;100109.66;4446944;32;34566;-66
2022/06/15 06:51:05;;;;;;;7.93;2.17;;;;;;;22.88;34.07;100107.75;4447979;32;34883;-69
2022/06/15 06:53:33;;;;;;;4.43;1.52;;;;;;;23.01;33.53;100110.72;4448612;32;32842;-67
2022/06/15 06:56:02;;;;;;;4.45;1.83;;;;;;;22.95;33.77;100106.03;4449074;32;32675;-66
2022/06/15 06:58:30;;;;;;;5.03;2.00;;;;;;;23.34;33.72;100110.38;4445957;32;34127;-68
2022/06/15 07:00:58;;;;;;;5.15;2.03;;;;;;;23.41;34.00;100113.22;4446930;32;34749;-69
2022/06/15 07:03:26;;;;;;;3.17;1.73;;;;;;;23.56;33.32;100108.56;4448050;32;34792;-66
2022/06/15 07:05:59;;;;;;;5.07;1.80;;;;;;;23.25;32.79;100111.50;4445582;32;34775;-66
2022/06/15 07:08:27;;;;;;;5.37;2.00;;;;;;;23.27;33.93;100114.87;4446686;32;33598;-67
2022/06/15 07:10:55;;;;;;;4.65;1.90;;;;;;;23.64;33.32;100108.47;4445745;32;33984;-67
2022/06/15 07:13:23;;;;;;;8.50;2.00;;;;;;;23.25;34.21;100112.34;4448108;32;34191;-67
2022/06/15 07:15:50;;;;;;;4.22;2.15;;;;;;;23.79;34.17;100108.47;4450384;32;32779;-68
2022/06/15 07:18:18;;;;;;;4.35;1.95;;;;;;;23.73;33.04;100111.13;4446170;32;33271;-66
2022/06/15 07:20:46;;;;;;;4.12;1.83;;;;;;;23.70;34.33;100115.09;4448006;32;35143;-67
2022/06/15 07:23:13;;;;;;;3.90;1.90;;;;;;;24.14;33.02;100119.59;4448221;32;33030;-69
2022/06/15 07:25:41;;;;;;;4.12;1.80;;;;;;;24.03;32.82;100117.38;4448056;32;33378;-66
2022/06/15 07:28:09;;;;;;;4.40;2.10;;;;;;;24.09;32.54;100116.59;4446595;32;33733;-69
2022/06/15 07:30:37;;;;;;;4.15;1.80;;;;;;;24.35;32.07;100113.28;4446633;32;35239;-65
2022/06/15 07:33:04;;;;;;;5.72;1.75;;;;;;;24.33;32.32;100107.16;4448882;32;34922;-67
2022/06/15 07:35:32;;;;;;;3.90;2.00;;;;;;;24.59;32.48;100112.94;4446742;32;34029;-68
2022/06/15 07:38:00;;;;;;;5.53;1.87;;;;;;;24.27;31.20;100110.66;4446701;32;33690;-67
2022/06/15 07:40:49;;;;;;;6.22;2.12;;;;;;;24.51;31.16;100110.31;4448721;32;32491;-69
2022/06/15 07:43:17;;;;;;;5.78;2.05;;;;;;;24.59;30.77;100112.94;4448663;32;33941;-67
2022/06/15 07:45:45;;;;;;;7.57;2.20;;;;;;;24.61;32.28;100119.03;4448578;32;35158;-68
2022/06/15 07:50:59;;;;;;;2.92;1.40;;;;;;;24.71;30.13;100102.28;4448547;32;33352;-66
2022/06/15 07:53:28;;;;;;;5.30;2.03;;;;;;;24.68;29.57;100102.66;4449290;32;34071;-66
2022/06/15 07:55:56;;;;;;;5.10;2.20;;;;;;;24.04;31.87;100102.66;4450017;32;34229;-68
2022/06/15 07:58:24;;;;;;;3.78;1.77;;;;;;;23.93;31.38;100102.13;4448520;32;32992;-66
2022/06/15 08:00:52;;;;;;;5.90;2.40;;;;;;;23.99;32.03;100107.88;4451150;32;34162;-66
2022/06/15 08:03:20;;;;;;;5.85;1.80;;;;;;;23.68;31.73;100098.00;4451242;32;35215;-68
2022/06/15 08:05:49;;;;;;;4.97;2.10;;;;;;;24.46;32.15;100101.00;4455078;32;34071;-66
2022/06/15 08:08:21;;;;;;;2.53;1.40;;;;;;;24.38;32.05;100101.97;4458841;32;32203;-68
2022/06/15 08:10:49;;;;;;;6.78;2.28;;;;;;;24.68;30.82;100102.66;4448494;32;35103;-67
2022/06/15 08:13:18;;;;;;;5.07;1.83;;;;;;;24.55;30.60;100102.56;4452349;32;35842;-65
2022/06/15 08:15:47;;;;;;;5.28;2.03;;;;;;;24.86;30.11;100096.72;4452402;32;34115;-70
2022/06/15 08:18:18;;;;;;;3.72;1.98;;;;;;;24.77;30.17;100098.75;4449704;32;32416;-67
2022/06/15 08:20:50;;;;;;;5.43;2.20;;;;;;;24.78;30.77;100091.37;4452173;32;33932;-67
2022/06/15 08:23:21;;;;;;;6.18;2.20;;;;;;;24.59;30.43;100110.19;4450824;32;34039;-67
2022/06/15 08:25:52;;;;;;;5.03;1.92;;;;;;;24.27;30.30;100102.47;4453784;32;35446;-66
2022/06/15 08:28:22;;;;;;;5.40;2.08;;;;;;;24.86;31.05;100102.19;4449151;32;33162;-68
2022/06/15 08:30:51;;;;;;;4.18;1.80;;;;;;;25.00;30.77;100092.19;4450147;32;33911;-66
2022/06/15 08:33:19;;;;;;;3.70;1.90;;;;;;;25.17;30.82;100103.69;4452431;32;34222;-66
2022/06/15 08:35:47;;;;;;;4.82;1.90;;;;;;;24.72;29.49;100098.53;4450133;32;33017;-66
2022/06/15 08:38:17;;;;;;;4.53;1.95;;;;;;;25.06;29.85;100097.69;4451776;32;32383;-68
2022/06/15 08:40:49;;;;;;;5.85;2.00;;;;;;;25.23;29.50;100101.03;4448086;32;33852;-64
2022/06/15 08:43:25;;;;;;;4.65;2.37;;;;;;;25.30;30.44;100104.63;4451642;32;35125;-68
2022/06/15 08:45:58;;;;;;;5.65;1.90;;;;;;;24.68;30.01;100104.56;4452466;32;34905;-69
2022/06/15 08:49:11;;;;;;;4.32;1.85;;;;;;;25.29;29.48;100104.81;4450505;32;33402;-65
2022/06/15 08:51:50;;;;;;;4.97;1.85;;;;;;;25.48;28.77;100095.03;4438146;32;33850;-65
2022/06/15 08:54:29;;;;;;;4.10;2.03;;;;;;;25.58;29.68;100095.47;4450846;32;33760;-65
2022/06/15 08:57:12;;;;;;;6.25;2.33;;;;;;;25.53;30.81;100096.12;4452045;32;34922;-65
2022/06/15 08:59:53;;;;;;;4.25;2.00;;;;;;;25.76;29.69;100086.72;4451152;32;34554;-67
2022/06/15 09:02:41;;;;;;;6.28;2.50;;;;;;;25.62;28.37;100084.97;4435111;32;33423;-65
2022/06/15 09:05:25;;;;;;;7.05;2.08;;;;;;;25.86;27.99;100089.94;4448593;32;33832;-65
2022/06/15 09:08:04;;;;;;;9.40;2.15;;;;;;;26.08;28.47;100089.81;4441523;32;35575;-65
2022/06/15 09:10:59;;;;;;;4.35;1.80;;;;;;;25.50;29.05;100095.69;4438118;32;34700;-65
2022/06/15 09:14:01;;;;;;;5.62;1.95;;;;;;;26.03;29.10;100087.66;4425545;32;32379;-68
2022/06/15 09:17:17;;;;;;;2.85;1.60;;;;;;;26.16;27.79;100084.09;4450263;32;32801;-67
2022/06/15 09:20:02;;;;;;;3.22;1.50;;;;;;;25.08;30.32;100092.88;4406517;32;35215;-65
2022/06/15 09:22:38;;;;;;;3.22;1.70;;;;;;;25.83;29.43;100082.13;4447865;32;34558;-65
2022/06/15 09:25:26;;;;;;;3.28;1.70;;;;;;;26.57;28.13;100081.22;4450883;32;33831;-66
2022/06/15 09:28:00;;;;;;;6.80;1.87;;;;;;;26.57;27.43;100078.47;4451079;32;33701;-65
2022/06/15 09:30:34;;;;;;;3.95;1.70;;;;;;;26.76;27.54;100075.94;4441009;32;35057;-68
2022/06/15 09:33:07;;;;;;;3.92;1.85;;;;;;;27.04;25.94;100078.47;4453009;32;33549;-65
2022/06/15 09:35:46;;;;;;;8.32;1.90;;;;;;;27.08;26.08;100076.97;4452516;32;33856;-65
2022/06/15 09:38:15;;;;;;;4.85;1.87;;;;;;;26.54;28.24;100080.81;4451977;32;35115;-67
2022/06/15 09:40:54;;;;;;;4.87;1.90;;;;;;;26.52;27.26;100078.28;4441275;32;35259;-64
2022/06/15 09:43:35;;;;;;;2.92;1.42;;;;;;;27.00;26.77;100078.03;4451500;32;33194;-65
2022/06/15 09:46:21;;;;;;;4.15;1.80;;;;;;;26.89;28.06;100073.19;4452336;32;34124;-67
2022/06/15 09:49:10;;;;;;;5.93;1.83;;;;;;;27.36;26.27;100077.56;4449169;32;33617;-66
2022/06/15 09:52:08;;;;;;;6.57;1.60;;;;;;;27.82;24.98;100072.94;4452485;32;33605;-67
2022/06/15 09:54:46;;;;;;;5.37;2.28;;;;;;;27.51;25.45;100071.81;4449402;32;34505;-66
2022/06/15 09:57:14;;;;;;;4.45;1.73;;;;;;;27.71;25.37;100071.72;4450941;32;33738;-65
2022/06/15 09:59:41;;;;;;;4.30;1.80;;;;;;;27.81;25.75;100068.53;4452863;32;33513;-66
2022/06/15 10:02:23;;;;;;;3.55;1.48;;;;;;;28.13;25.35;100063.06;4449459;32;33704;-67
2022/06/15 10:04:51;;;;;;;4.47;1.75;;;;;;;28.60;24.54;100067.16;4449392;32;33312;-65
2022/06/15 10:07:40;;;;;;;3.30;1.62;;;;;;;28.50;25.12;100056.66;4448032;32;32135;-65
2022/06/15 10:10:25;;;;;;;5.68;1.90;;;;;;;28.72;24.72;100051.59;4449653;32;32303;-65
2022/06/15 10:12:59;;;;;;;3.27;1.80;;;;;;;28.50;24.33;100053.87;4450269;32;32816;-67
2022/06/15 10:15:33;;;;;;;7.37;2.20;;;;;;;28.06;25.41;100047.44;4449666;32;34610;-67
2022/06/15 10:18:12;;;;;;;3.72;1.92;;;;;;;28.04;24.37;100044.03;4449456;32;33998;-67
2022/06/15 10:20:41;;;;;;;3.60;2.00;;;;;;;28.02;24.94;100050.81;4450827;32;32495;-65
2022/06/15 10:23:24;;;;;;;3.92;1.75;;;;;;;28.30;24.37;100040.25;4450342;32;32837;-65
2022/06/15 10:25:55;;;;;;;4.07;1.73;;;;;;;28.42;24.89;100047.84;4447902;32;33835;-65
2022/06/15 10:28:35;;;;;;;4.07;1.62;;;;;;;28.55;24.39;100037.56;4450531;32;33449;-65
2022/06/15 10:31:11;;;;;;;5.93;2.03;;;;;;;28.59;24.56;100039.84;4450715;32;33613;-65
2022/06/15 10:33:46;;;;;;;3.55;1.75;;;;;;;28.82;24.47;100036.47;4449888;32;34031;-64
2022/06/15 10:36:33;;;;;;;5.70;1.77;;;;;;;28.98;24.27;100033.09;4450428;32;32230;-64
2022/06/15 10:39:06;;;;;;;5.68;1.50;;;;;;;29.18;23.43;100028.28;4449615;32;33947;-64
2022/06/15 10:42:00;;;;;;;4.05;1.62;;;;;;;29.07;22.77;100026.25;4447757;32;32530;-67
2022/06/15 10:44:31;;;;;;;2.00;1.30;;;;;;;29.39;24.37;100029.69;4450543;32;34049;-65
2022/06/15 10:47:03;;;;;;;3.75;1.40;;;;;;;29.69;23.40;100021.47;4450227;32;32374;-65
2022/06/15 10:49:41;;;;;;;2.85;1.50;;;;;;;29.64;24.53;100017.75;4437830;32;33810;-65
2022/06/15 10:52:37;;;;;;;3.03;1.60;;;;;;;29.94;23.37;100026.84;4448532;32;35073;-64
2022/06/15 11:04:11;;;;;;;3.60;1.40;;;;;;;29.88;23.20;100013.16;4444193;32;34058;-64
2022/06/15 11:06:59;;;;;;;3.67;1.42;;;;;;;29.93;23.14;100014.16;4452361;32;34907;-64
2022/06/15 11:09:41;;;;;;;4.50;1.75;;;;;;;29.54;23.90;100009.16;4450669;32;33500;-63
2022/06/15 11:12:24;;;;;;;4.68;1.60;;;;;;;29.27;24.47;100006.72;4445399;32;33702;-63
2022/06/15 11:14:59;;;;;;;3.87;1.85;;;;;;;28.66;24.91;99997.41;4437030;32;33859;-64
2022/06/15 11:20:43;;;;;;;4.85;1.33;;;;;;;29.06;25.10;100012.72;4449127;32;34925;-62
2022/06/15 11:23:43;;;;;;;4.90;1.40;;;;;;;29.43;24.33;100003.34;4450724;32;33663;-64
2022/06/15 11:29:21;;;;;;;3.43;1.50;;;;;;;28.87;25.16;99990.62;4453641;32;34125;-64
2022/06/15 11:32:10;;;;;;;;;;;;;;;29.29;24.27;99990.81;4447162;32;34480;-63
2022/06/15 11:34:59;;;;;;;5.55;1.60;;;;;;;29.87;23.32;99987.50;4447047;32;33941;-64
2022/06/15 11:37:49;;;;;;;3.28;1.50;;;;;;;29.65;23.20;99987.16;4451138;32;33969;-65
2022/06/15 11:40:16;;;;;;;5.25;1.30;;;;;;;29.23;24.20;99980.72;4446959;32;32745;-65
2022/06/15 11:42:51;;;;;;;5.90;1.45;;;;;;;29.52;23.47;99986.50;4451939;32;33576;-64
2022/06/15 11:45:32;;;;;;;5.45;1.20;;;;;;;29.15;23.77;99983.75;4445168;32;32504;-64
2022/06/15 11:48:00;;;;;;;2.62;1.20;;;;;;;28.75;24.24;99990.53;4447957;32;34453;-64
2022/06/15 11:50:31;;;;;;;3.42;1.35;;;;;;;29.45;22.97;99984.66;4449258;32;33879;-66
2022/06/15 11:53:11;;;;;;;4.93;1.40;;;;;;;29.04;23.36;99988.16;4449295;32;34488;-63
2022/06/15 11:55:54;;;;;;;2.50;1.33;;;;;;;29.55;22.97;99980.50;4452879;32;33804;-65
2022/06/15 11:58:36;;;;;;;3.97;1.48;;;;;;;29.72;22.73;99984.31;4437632;32;32725;-64
2022/06/15 12:01:44;;;;;;;5.87;1.40;;;;;;;29.60;23.73;99975.12;4451614;32;34027;-66
2022/06/15 12:04:40;;;;;;;2.25;1.20;;;;;;;29.38;23.14;99983.91;4448840;32;33870;-64
2022/06/15 12:07:10;;;;;;;4.10;1.30;;;;;;;29.20;23.65;99970.16;4452473;32;32725;-64
2022/06/15 12:09:57;;;;;;;5.25;1.42;;;;;;;28.59;24.67;99971.84;4440640;32;33914;-63
2022/06/15 12:12:39;;;;;;;4.15;1.40;;;;;;;28.85;24.13;99970.72;4444661;32;33664;-63
2022/06/15 12:15:25;;;;;;;3.70;1.35;;;;;;;28.97;23.93;99970.81;4436974;32;32162;-64